sensor_id;sensor_type;location;lat;lon;timestamp;temperature;humidity
24470;DHT22;12635;50.852;5.676;2023-06-22T00:02:28;18.40;99.90
24470;DHT22;12635;50.852;5.676;2023-06-22T00:04:54;18.30;99.90
24470;DHT22;12635;50.852;5.676;2023-06-22T00:07:21;18.30;99.90
24470;DHT22;12635;50.852;5.676;2023-06-22T00:09:49;18.30;99.90
24470;DHT22;12635;50.852;5.676;2023-06-22T00:12:16;18.20;99.90
24470;DHT22;12635;50.852;5.676;2023-06-22T00:14:43;18.10;99.90
24470;DHT22;12635;50.852;5.676;2023-06-22T00:17:09;18.00;99.90
24470;DHT22;12635;50.852;5.676;2023-06-22T00:19:38;17.90;99.90
24470;DHT22;12635;50.852;5.676;2023-06-22T00:22:06;18.00;99.90
24470;DHT22;12635;50.852;5.676;2023-06-22T00:24:32;18.00;99.90
24470;DHT22;12635;50.852;5.676;2023-06-22T00:26:59;18.00;99.90
24470;DHT22;12635;50.852;5.676;2023-06-22T00:29:26;18.10;99.90
24470;DHT22;12635;50.852;5.676;2023-06-22T00:31:53;18.20;99.90
24470;DHT22;12635;50.852;5.676;2023-06-22T00:34:20;18.20;99.90
24470;DHT22;12635;50.852;5.676;2023-06-22T00:36:48;18.30;99.90
24470;DHT22;12635;50.852;5.676;2023-06-22T00:39:17;18.40;99.90
24470;DHT22;12635;50.852;5.676;2023-06-22T00:41:43;18.50;99.90
24470;DHT22;12635;50.852;5.676;2023-06-22T00:44:10;18.50;99.90
24470;DHT22;12635;50.852;5.676;2023-06-22T00:46:37;18.50;99.90
24470;DHT22;12635;50.852;5.676;2023-06-22T00:49:04;18.50;99.90
24470;DHT22;12635;50.852;5.676;2023-06-22T00:51:31;18.50;99.90
24470;DHT22;12635;50.852;5.676;2023-06-22T00:53:59;18.80;99.90
24470;DHT22;12635;50.852;5.676;2023-06-22T00:56:26;18.80;99.90
24470;DHT22;12635;50.852;5.676;2023-06-22T00:58:55;18.90;99.90
24470;DHT22;12635;50.852;5.676;2023-06-22T01:01:22;18.90;99.90
24470;DHT22;12635;50.852;5.676;2023-06-22T01:03:50;18.80;99.90
24470;DHT22;12635;50.852;5.676;2023-06-22T01:06:19;18.80;99.90
24470;DHT22;12635;50.852;5.676;2023-06-22T01:08:54;18.90;99.90
24470;DHT22;12635;50.852;5.676;2023-06-22T01:11:26;18.90;99.90
24470;DHT22;12635;50.852;5.676;2023-06-22T01:13:58;18.90;99.90
24470;DHT22;12635;50.852;5.676;2023-06-22T01:16:28;18.80;99.90
24470;DHT22;12635;50.852;5.676;2023-06-22T01:18:55;18.70;99.90
24470;DHT22;12635;50.852;5.676;2023-06-22T01:21:23;18.70;99.90
24470;DHT22;12635;50.852;5.676;2023-06-22T01:23:56;18.70;99.90
24470;DHT22;12635;50.852;5.676;2023-06-22T01:26:32;18.70;99.90
24470;DHT22;12635;50.852;5.676;2023-06-22T01:29:03;18.70;99.90
24470;DHT22;12635;50.852;5.676;2023-06-22T01:31:30;18.60;99.90
24470;DHT22;12635;50.852;5.676;2023-06-22T01:33:59;18.70;99.90
24470;DHT22;12635;50.852;5.676;2023-06-22T01:36:27;18.80;99.90
24470;DHT22;12635;50.852;5.676;2023-06-22T01:38:54;18.70;99.90
24470;DHT22;12635;50.852;5.676;2023-06-22T01:41:21;18.60;99.90
24470;DHT22;12635;50.852;5.676;2023-06-22T01:43:48;18.70;99.90
24470;DHT22;12635;50.852;5.676;2023-06-22T01:46:17;18.60;99.90
24470;DHT22;12635;50.852;5.676;2023-06-22T01:48:46;18.80;99.90
24470;DHT22;12635;50.852;5.676;2023-06-22T01:51:13;18.70;99.90
24470;DHT22;12635;50.852;5.676;2023-06-22T01:53:40;18.70;99.90
24470;DHT22;12635;50.852;5.676;2023-06-22T01:56:06;18.70;99.90
24470;DHT22;12635;50.852;5.676;2023-06-22T01:58:34;18.80;99.90
24470;DHT22;12635;50.852;5.676;2023-06-22T02:01:05;18.90;99.90
24470;DHT22;12635;50.852;5.676;2023-06-22T02:03:38;18.90;99.90
24470;DHT22;12635;50.852;5.676;2023-06-22T02:06:07;18.90;99.90
24470;DHT22;12635;50.852;5.676;2023-06-22T02:08:36;18.90;99.90
24470;DHT22;12635;50.852;5.676;2023-06-22T02:11:04;18.70;99.90
24470;DHT22;12635;50.852;5.676;2023-06-22T02:13:33;18.60;99.90
24470;DHT22;12635;50.852;5.676;2023-06-22T02:16:00;18.60;99.90
24470;DHT22;12635;50.852;5.676;2023-06-22T02:18:27;18.60;99.90
24470;DHT22;12635;50.852;5.676;2023-06-22T02:20:56;18.60;99.90
24470;DHT22;12635;50.852;5.676;2023-06-22T02:23:23;18.60;99.90
24470;DHT22;12635;50.852;5.676;2023-06-22T02:25:50;18.60;99.90
24470;DHT22;12635;50.852;5.676;2023-06-22T02:28:16;18.60;99.90
24470;DHT22;12635;50.852;5.676;2023-06-22T02:30:43;18.60;99.90
24470;DHT22;12635;50.852;5.676;2023-06-22T02:33:10;18.60;99.90
24470;DHT22;12635;50.852;5.676;2023-06-22T02:35:37;18.60;99.90
24470;DHT22;12635;50.852;5.676;2023-06-22T02:38:06;18.70;99.90
24470;DHT22;12635;50.852;5.676;2023-06-22T02:40:33;18.50;99.90
24470;DHT22;12635;50.852;5.676;2023-06-22T02:43:00;18.60;99.90
24470;DHT22;12635;50.852;5.676;2023-06-22T02:45:28;18.50;99.90
24470;DHT22;12635;50.852;5.676;2023-06-22T02:47:55;18.50;99.90
24470;DHT22;12635;50.852;5.676;2023-06-22T02:50:22;18.60;99.90
24470;DHT22;12635;50.852;5.676;2023-06-22T02:52:49;18.60;99.90
24470;DHT22;12635;50.852;5.676;2023-06-22T02:55:17;18.50;99.90
24470;DHT22;12635;50.852;5.676;2023-06-22T02:57:44;18.50;99.90
24470;DHT22;12635;50.852;5.676;2023-06-22T03:00:13;18.40;99.90
24470;DHT22;12635;50.852;5.676;2023-06-22T03:02:42;18.40;99.90
24470;DHT22;12635;50.852;5.676;2023-06-22T03:05:10;18.30;99.90
24470;DHT22;12635;50.852;5.676;2023-06-22T03:07:39;18.30;99.90
24470;DHT22;12635;50.852;5.676;2023-06-22T03:10:06;18.30;99.90
24470;DHT22;12635;50.852;5.676;2023-06-22T03:12:36;18.30;99.90
24470;DHT22;12635;50.852;5.676;2023-06-22T03:15:04;18.20;99.90
24470;DHT22;12635;50.852;5.676;2023-06-22T03:17:31;18.30;99.90
24470;DHT22;12635;50.852;5.676;2023-06-22T03:19:58;18.20;99.90
24470;DHT22;12635;50.852;5.676;2023-06-22T03:22:24;18.20;99.90
24470;DHT22;12635;50.852;5.676;2023-06-22T03:24:51;18.30;99.90
24470;DHT22;12635;50.852;5.676;2023-06-22T03:27:18;18.30;99.90
24470;DHT22;12635;50.852;5.676;2023-06-22T03:29:47;18.30;99.90
24470;DHT22;12635;50.852;5.676;2023-06-22T03:32:14;18.30;99.90
24470;DHT22;12635;50.852;5.676;2023-06-22T03:34:40;18.40;99.90
24470;DHT22;12635;50.852;5.676;2023-06-22T03:37:12;18.50;99.90
24470;DHT22;12635;50.852;5.676;2023-06-22T03:39:39;18.50;99.90
24470;DHT22;12635;50.852;5.676;2023-06-22T03:42:06;18.50;99.90
24470;DHT22;12635;50.852;5.676;2023-06-22T03:44:33;18.50;99.90
24470;DHT22;12635;50.852;5.676;2023-06-22T03:47:03;18.50;99.90
24470;DHT22;12635;50.852;5.676;2023-06-22T03:49:32;18.50;99.90
24470;DHT22;12635;50.852;5.676;2023-06-22T03:51:59;18.50;99.90
24470;DHT22;12635;50.852;5.676;2023-06-22T03:54:26;18.60;99.90
24470;DHT22;12635;50.852;5.676;2023-06-22T03:56:53;18.60;99.90
24470;DHT22;12635;50.852;5.676;2023-06-22T03:59:20;18.60;99.90
24470;DHT22;12635;50.852;5.676;2023-06-22T04:01:47;18.60;99.90
24470;DHT22;12635;50.852;5.676;2023-06-22T04:04:15;18.60;99.90
24470;DHT22;12635;50.852;5.676;2023-06-22T04:06:42;18.60;99.90
24470;DHT22;12635;50.852;5.676;2023-06-22T04:09:09;18.60;99.90
24470;DHT22;12635;50.852;5.676;2023-06-22T04:11:36;18.30;99.90
24470;DHT22;12635;50.852;5.676;2023-06-22T04:14:03;17.80;99.90
24470;DHT22;12635;50.852;5.676;2023-06-22T04:16:30;17.50;99.90
24470;DHT22;12635;50.852;5.676;2023-06-22T04:18:57;17.40;99.90
24470;DHT22;12635;50.852;5.676;2023-06-22T04:21:25;17.30;99.90
24470;DHT22;12635;50.852;5.676;2023-06-22T04:23:52;17.30;99.90
24470;DHT22;12635;50.852;5.676;2023-06-22T04:26:19;17.40;99.90
24470;DHT22;12635;50.852;5.676;2023-06-22T04:28:46;17.30;99.90
24470;DHT22;12635;50.852;5.676;2023-06-22T04:31:17;17.30;99.90
24470;DHT22;12635;50.852;5.676;2023-06-22T04:33:44;17.30;99.90
24470;DHT22;12635;50.852;5.676;2023-06-22T04:36:10;17.40;99.90
24470;DHT22;12635;50.852;5.676;2023-06-22T04:38:40;17.40;99.90
24470;DHT22;12635;50.852;5.676;2023-06-22T04:41:09;17.50;99.90
24470;DHT22;12635;50.852;5.676;2023-06-22T04:43:39;17.50;99.90
24470;DHT22;12635;50.852;5.676;2023-06-22T04:46:06;17.50;99.90
24470;DHT22;12635;50.852;5.676;2023-06-22T04:48:33;17.50;99.90
24470;DHT22;12635;50.852;5.676;2023-06-22T04:51:01;17.50;99.90
24470;DHT22;12635;50.852;5.676;2023-06-22T04:53:29;17.40;99.90
24470;DHT22;12635;50.852;5.676;2023-06-22T04:55:57;17.50;99.90
24470;DHT22;12635;50.852;5.676;2023-06-22T04:58:24;17.50;99.90
24470;DHT22;12635;50.852;5.676;2023-06-22T05:00:54;17.50;99.90
24470;DHT22;12635;50.852;5.676;2023-06-22T05:03:22;17.50;99.90
24470;DHT22;12635;50.852;5.676;2023-06-22T05:05:51;17.50;99.90
24470;DHT22;12635;50.852;5.676;2023-06-22T05:08:19;17.50;99.90
24470;DHT22;12635;50.852;5.676;2023-06-22T05:10:46;17.50;99.90
24470;DHT22;12635;50.852;5.676;2023-06-22T05:13:14;17.50;99.90
24470;DHT22;12635;50.852;5.676;2023-06-22T05:15:41;17.60;99.90
24470;DHT22;12635;50.852;5.676;2023-06-22T05:18:08;17.60;99.90
24470;DHT22;12635;50.852;5.676;2023-06-22T05:20:37;17.60;99.90
24470;DHT22;12635;50.852;5.676;2023-06-22T05:23:04;17.60;99.90
24470;DHT22;12635;50.852;5.676;2023-06-22T05:25:31;17.70;99.90
24470;DHT22;12635;50.852;5.676;2023-06-22T05:27:58;17.70;99.90
24470;DHT22;12635;50.852;5.676;2023-06-22T05:30:26;17.70;99.90
24470;DHT22;12635;50.852;5.676;2023-06-22T05:32:53;17.70;99.90
24470;DHT22;12635;50.852;5.676;2023-06-22T05:35:20;17.70;99.90
24470;DHT22;12635;50.852;5.676;2023-06-22T05:37:47;17.80;99.90
24470;DHT22;12635;50.852;5.676;2023-06-22T05:40:14;17.70;99.90
24470;DHT22;12635;50.852;5.676;2023-06-22T05:42:41;17.70;99.90
24470;DHT22;12635;50.852;5.676;2023-06-22T05:45:08;17.80;99.90
24470;DHT22;12635;50.852;5.676;2023-06-22T05:47:37;17.80;99.90
24470;DHT22;12635;50.852;5.676;2023-06-22T05:50:04;17.90;99.90
24470;DHT22;12635;50.852;5.676;2023-06-22T05:52:34;17.90;99.90
24470;DHT22;12635;50.852;5.676;2023-06-22T05:55:01;18.00;99.90
24470;DHT22;12635;50.852;5.676;2023-06-22T05:57:28;18.00;99.90
24470;DHT22;12635;50.852;5.676;2023-06-22T05:59:55;18.10;99.90
24470;DHT22;12635;50.852;5.676;2023-06-22T06:02:22;18.20;99.90
24470;DHT22;12635;50.852;5.676;2023-06-22T06:04:50;18.20;99.90
24470;DHT22;12635;50.852;5.676;2023-06-22T06:07:18;18.30;99.90
24470;DHT22;12635;50.852;5.676;2023-06-22T06:09:45;18.30;99.90
24470;DHT22;12635;50.852;5.676;2023-06-22T06:12:11;18.40;99.90
24470;DHT22;12635;50.852;5.676;2023-06-22T06:14:38;18.50;99.90
24470;DHT22;12635;50.852;5.676;2023-06-22T06:17:05;18.60;99.90
24470;DHT22;12635;50.852;5.676;2023-06-22T06:19:32;18.60;99.90
24470;DHT22;12635;50.852;5.676;2023-06-22T06:22:00;18.60;99.90
24470;DHT22;12635;50.852;5.676;2023-06-22T06:24:28;18.70;99.90
24470;DHT22;12635;50.852;5.676;2023-06-22T06:26:55;18.80;99.90
24470;DHT22;12635;50.852;5.676;2023-06-22T06:29:22;18.90;99.90
24470;DHT22;12635;50.852;5.676;2023-06-22T06:31:49;19.00;99.90
24470;DHT22;12635;50.852;5.676;2023-06-22T06:34:16;19.10;99.90
24470;DHT22;12635;50.852;5.676;2023-06-22T06:36:43;19.30;99.90
24470;DHT22;12635;50.852;5.676;2023-06-22T06:39:12;19.60;99.90
24470;DHT22;12635;50.852;5.676;2023-06-22T06:41:38;20.00;99.90
24470;DHT22;12635;50.852;5.676;2023-06-22T06:44:05;20.60;99.90
24470;DHT22;12635;50.852;5.676;2023-06-22T06:46:32;21.00;99.90
24470;DHT22;12635;50.852;5.676;2023-06-22T06:48:59;21.60;99.90
24470;DHT22;12635;50.852;5.676;2023-06-22T06:51:26;21.80;99.90
24470;DHT22;12635;50.852;5.676;2023-06-22T06:53:53;21.60;99.90
24470;DHT22;12635;50.852;5.676;2023-06-22T06:56:21;21.90;99.90
24470;DHT22;12635;50.852;5.676;2023-06-22T06:58:49;22.10;99.90
24470;DHT22;12635;50.852;5.676;2023-06-22T07:01:16;22.50;99.90
24470;DHT22;12635;50.852;5.676;2023-06-22T07:03:45;23.10;99.90
24470;DHT22;12635;50.852;5.676;2023-06-22T07:06:12;24.10;99.90
24470;DHT22;12635;50.852;5.676;2023-06-22T07:08:39;24.50;99.90
24470;DHT22;12635;50.852;5.676;2023-06-22T07:11:06;25.50;99.90
24470;DHT22;12635;50.852;5.676;2023-06-22T07:13:35;24.50;99.90
24470;DHT22;12635;50.852;5.676;2023-06-22T07:16:01;23.70;99.90
24470;DHT22;12635;50.852;5.676;2023-06-22T07:18:28;23.40;99.90
24470;DHT22;12635;50.852;5.676;2023-06-22T07:20:56;23.50;99.90
24470;DHT22;12635;50.852;5.676;2023-06-22T07:23:22;22.80;99.90
24470;DHT22;12635;50.852;5.676;2023-06-22T07:25:49;22.30;99.90
24470;DHT22;12635;50.852;5.676;2023-06-22T07:28:16;22.30;99.90
24470;DHT22;12635;50.852;5.676;2023-06-22T07:30:44;21.80;99.90
24470;DHT22;12635;50.852;5.676;2023-06-22T07:33:12;21.60;99.90
24470;DHT22;12635;50.852;5.676;2023-06-22T07:35:39;21.80;99.90
24470;DHT22;12635;50.852;5.676;2023-06-22T07:38:06;22.10;99.90
24470;DHT22;12635;50.852;5.676;2023-06-22T07:40:34;22.90;99.90
24470;DHT22;12635;50.852;5.676;2023-06-22T07:43:01;23.20;99.90
24470;DHT22;12635;50.852;5.676;2023-06-22T07:45:28;23.70;99.90
24470;DHT22;12635;50.852;5.676;2023-06-22T07:47:57;24.70;99.90
24470;DHT22;12635;50.852;5.676;2023-06-22T07:50:24;24.90;99.90
24470;DHT22;12635;50.852;5.676;2023-06-22T07:52:51;24.30;99.90
24470;DHT22;12635;50.852;5.676;2023-06-22T07:55:18;24.30;99.90
24470;DHT22;12635;50.852;5.676;2023-06-22T07:57:46;24.50;99.90
24470;DHT22;12635;50.852;5.676;2023-06-22T08:00:14;24.90;99.90
24470;DHT22;12635;50.852;5.676;2023-06-22T08:02:42;25.50;99.90
24470;DHT22;12635;50.852;5.676;2023-06-22T08:05:11;25.60;99.90
24470;DHT22;12635;50.852;5.676;2023-06-22T08:07:38;25.10;99.90
24470;DHT22;12635;50.852;5.676;2023-06-22T08:10:06;24.90;99.90
24470;DHT22;12635;50.852;5.676;2023-06-22T08:12:33;24.30;99.90
24470;DHT22;12635;50.852;5.676;2023-06-22T08:15:00;24.60;99.90
24470;DHT22;12635;50.852;5.676;2023-06-22T08:17:28;25.10;99.90
24470;DHT22;12635;50.852;5.676;2023-06-22T08:19:56;26.30;99.90
24470;DHT22;12635;50.852;5.676;2023-06-22T08:22:24;26.70;99.90
24470;DHT22;12635;50.852;5.676;2023-06-22T08:24:51;26.40;99.90
24470;DHT22;12635;50.852;5.676;2023-06-22T08:27:18;26.30;99.90
24470;DHT22;12635;50.852;5.676;2023-06-22T08:29:46;26.10;99.90
24470;DHT22;12635;50.852;5.676;2023-06-22T08:32:15;25.60;99.90
24470;DHT22;12635;50.852;5.676;2023-06-22T08:34:42;25.10;99.90
24470;DHT22;12635;50.852;5.676;2023-06-22T08:37:09;25.40;99.90
24470;DHT22;12635;50.852;5.676;2023-06-22T08:39:37;26.00;99.90
24470;DHT22;12635;50.852;5.676;2023-06-22T08:42:05;26.70;99.90
24470;DHT22;12635;50.852;5.676;2023-06-22T08:44:32;27.90;99.90
24470;DHT22;12635;50.852;5.676;2023-06-22T08:46:59;29.90;99.90
24470;DHT22;12635;50.852;5.676;2023-06-22T08:49:26;29.60;99.90
24470;DHT22;12635;50.852;5.676;2023-06-22T08:51:53;28.30;99.90
24470;DHT22;12635;50.852;5.676;2023-06-22T08:54:21;27.00;99.90
24470;DHT22;12635;50.852;5.676;2023-06-22T08:56:49;26.90;99.90
24470;DHT22;12635;50.852;5.676;2023-06-22T08:59:16;26.30;99.90
24470;DHT22;12635;50.852;5.676;2023-06-22T09:01:43;25.40;99.90
24470;DHT22;12635;50.852;5.676;2023-06-22T09:04:14;25.00;99.90
24470;DHT22;12635;50.852;5.676;2023-06-22T09:06:41;24.70;99.90
24470;DHT22;12635;50.852;5.676;2023-06-22T09:09:10;24.80;99.90
24470;DHT22;12635;50.852;5.676;2023-06-22T09:11:37;24.60;99.90
24470;DHT22;12635;50.852;5.676;2023-06-22T09:14:05;24.60;99.90
24470;DHT22;12635;50.852;5.676;2023-06-22T09:16:32;24.50;99.90
24470;DHT22;12635;50.852;5.676;2023-06-22T09:18:59;24.60;99.90
24470;DHT22;12635;50.852;5.676;2023-06-22T09:21:26;24.40;99.90
24470;DHT22;12635;50.852;5.676;2023-06-22T09:23:53;24.00;99.90
24470;DHT22;12635;50.852;5.676;2023-06-22T09:26:20;23.70;99.90
24470;DHT22;12635;50.852;5.676;2023-06-22T09:28:48;23.90;99.90
24470;DHT22;12635;50.852;5.676;2023-06-22T09:31:16;23.70;99.90
24470;DHT22;12635;50.852;5.676;2023-06-22T09:33:43;23.60;99.90
24470;DHT22;12635;50.852;5.676;2023-06-22T09:36:10;23.60;99.90
24470;DHT22;12635;50.852;5.676;2023-06-22T09:38:36;23.60;99.90
24470;DHT22;12635;50.852;5.676;2023-06-22T09:41:04;23.60;99.90
24470;DHT22;12635;50.852;5.676;2023-06-22T09:43:31;23.80;99.90
24470;DHT22;12635;50.852;5.676;2023-06-22T09:46:00;23.60;99.90
24470;DHT22;12635;50.852;5.676;2023-06-22T09:48:29;23.20;99.90
24470;DHT22;12635;50.852;5.676;2023-06-22T09:50:56;23.00;99.90
24470;DHT22;12635;50.852;5.676;2023-06-22T09:53:23;22.90;99.90
24470;DHT22;12635;50.852;5.676;2023-06-22T09:55:50;23.00;99.90
24470;DHT22;12635;50.852;5.676;2023-06-22T09:58:17;23.00;99.90
24470;DHT22;12635;50.852;5.676;2023-06-22T10:00:44;22.90;99.90
24470;DHT22;12635;50.852;5.676;2023-06-22T10:03:10;22.70;99.90
24470;DHT22;12635;50.852;5.676;2023-06-22T10:05:39;22.60;99.90
24470;DHT22;12635;50.852;5.676;2023-06-22T10:08:06;22.30;99.90
24470;DHT22;12635;50.852;5.676;2023-06-22T10:10:35;22.10;99.90
24470;DHT22;12635;50.852;5.676;2023-06-22T10:13:03;21.80;99.90
24470;DHT22;12635;50.852;5.676;2023-06-22T10:15:33;21.60;99.90
24470;DHT22;12635;50.852;5.676;2023-06-22T10:18:00;21.40;99.90
24470;DHT22;12635;50.852;5.676;2023-06-22T10:20:27;21.40;99.90
24470;DHT22;12635;50.852;5.676;2023-06-22T10:22:56;21.20;99.90
24470;DHT22;12635;50.852;5.676;2023-06-22T10:25:22;21.00;99.90
24470;DHT22;12635;50.852;5.676;2023-06-22T10:27:50;20.80;99.90
24470;DHT22;12635;50.852;5.676;2023-06-22T10:30:17;20.60;99.90
24470;DHT22;12635;50.852;5.676;2023-06-22T10:32:44;20.40;99.90
24470;DHT22;12635;50.852;5.676;2023-06-22T10:35:11;20.40;99.90
24470;DHT22;12635;50.852;5.676;2023-06-22T10:37:39;20.40;99.90
24470;DHT22;12635;50.852;5.676;2023-06-22T10:40:10;20.50;99.90
24470;DHT22;12635;50.852;5.676;2023-06-22T10:42:37;20.60;99.90
24470;DHT22;12635;50.852;5.676;2023-06-22T10:45:04;20.80;99.90
24470;DHT22;12635;50.852;5.676;2023-06-22T10:47:31;21.00;99.90
24470;DHT22;12635;50.852;5.676;2023-06-22T10:49:58;21.30;99.90
24470;DHT22;12635;50.852;5.676;2023-06-22T10:52:25;21.60;99.90
24470;DHT22;12635;50.852;5.676;2023-06-22T10:54:52;22.00;99.90
24470;DHT22;12635;50.852;5.676;2023-06-22T10:57:21;22.30;99.90
24470;DHT22;12635;50.852;5.676;2023-06-22T10:59:48;22.40;99.90
24470;DHT22;12635;50.852;5.676;2023-06-22T11:02:15;22.90;99.90
24470;DHT22;12635;50.852;5.676;2023-06-22T11:04:42;23.60;99.90
24470;DHT22;12635;50.852;5.676;2023-06-22T11:07:09;23.10;99.90
24470;DHT22;12635;50.852;5.676;2023-06-22T11:09:35;23.10;99.90
24470;DHT22;12635;50.852;5.676;2023-06-22T11:12:04;22.90;99.90
24470;DHT22;12635;50.852;5.676;2023-06-22T11:14:32;22.70;99.90
24470;DHT22;12635;50.852;5.676;2023-06-22T11:16:59;22.80;99.90
24470;DHT22;12635;50.852;5.676;2023-06-22T11:19:26;22.80;99.90
24470;DHT22;12635;50.852;5.676;2023-06-22T11:21:53;22.80;99.90
24470;DHT22;12635;50.852;5.676;2023-06-22T11:24:20;22.60;99.90
24470;DHT22;12635;50.852;5.676;2023-06-22T11:26:47;22.50;99.90
24470;DHT22;12635;50.852;5.676;2023-06-22T11:29:16;22.50;99.90
24470;DHT22;12635;50.852;5.676;2023-06-22T11:31:44;22.60;99.90
24470;DHT22;12635;50.852;5.676;2023-06-22T11:34:11;22.60;99.90
24470;DHT22;12635;50.852;5.676;2023-06-22T11:36:39;22.90;99.90
24470;DHT22;12635;50.852;5.676;2023-06-22T11:39:05;23.10;99.90
24470;DHT22;12635;50.852;5.676;2023-06-22T11:41:34;23.00;99.90
24470;DHT22;12635;50.852;5.676;2023-06-22T11:44:01;22.50;99.90
24470;DHT22;12635;50.852;5.676;2023-06-22T11:46:29;22.30;99.90
24470;DHT22;12635;50.852;5.676;2023-06-22T11:48:58;22.10;99.90
24470;DHT22;12635;50.852;5.676;2023-06-22T11:51:25;22.00;99.90
24470;DHT22;12635;50.852;5.676;2023-06-22T11:53:53;21.80;99.90
24470;DHT22;12635;50.852;5.676;2023-06-22T11:56:20;21.80;99.90
24470;DHT22;12635;50.852;5.676;2023-06-22T11:58:47;21.60;99.90
24470;DHT22;12635;50.852;5.676;2023-06-22T12:01:13;21.40;99.90
24470;DHT22;12635;50.852;5.676;2023-06-22T12:03:40;21.40;99.90
24470;DHT22;12635;50.852;5.676;2023-06-22T12:06:10;21.20;99.90
24470;DHT22;12635;50.852;5.676;2023-06-22T12:08:37;21.00;99.90
24470;DHT22;12635;50.852;5.676;2023-06-22T12:11:04;20.80;99.90
24470;DHT22;12635;50.852;5.676;2023-06-22T12:13:31;20.50;99.90
24470;DHT22;12635;50.852;5.676;2023-06-22T12:15:58;20.50;99.90
24470;DHT22;12635;50.852;5.676;2023-06-22T12:18:24;20.60;99.90
24470;DHT22;12635;50.852;5.676;2023-06-22T12:20:51;20.80;99.90
24470;DHT22;12635;50.852;5.676;2023-06-22T12:23:20;21.00;99.90
24470;DHT22;12635;50.852;5.676;2023-06-22T12:25:46;21.10;99.90
24470;DHT22;12635;50.852;5.676;2023-06-22T12:28:13;21.00;99.90
24470;DHT22;12635;50.852;5.676;2023-06-22T12:30:40;20.80;99.90
24470;DHT22;12635;50.852;5.676;2023-06-22T12:33:07;20.70;99.90
24470;DHT22;12635;50.852;5.676;2023-06-22T12:35:34;20.70;99.90
24470;DHT22;12635;50.852;5.676;2023-06-22T12:38:01;20.70;99.90
24470;DHT22;12635;50.852;5.676;2023-06-22T12:40:29;20.80;99.90
24470;DHT22;12635;50.852;5.676;2023-06-22T12:42:56;20.90;99.90
24470;DHT22;12635;50.852;5.676;2023-06-22T12:45:23;20.90;99.90
24470;DHT22;12635;50.852;5.676;2023-06-22T12:47:54;20.90;99.90
24470;DHT22;12635;50.852;5.676;2023-06-22T12:50:21;20.90;99.90
24470;DHT22;12635;50.852;5.676;2023-06-22T12:52:48;20.80;99.90
24470;DHT22;12635;50.852;5.676;2023-06-22T12:55:14;20.70;99.90
24470;DHT22;12635;50.852;5.676;2023-06-22T12:57:43;20.80;99.90
24470;DHT22;12635;50.852;5.676;2023-06-22T13:00:10;20.60;99.90
24470;DHT22;12635;50.852;5.676;2023-06-22T13:02:37;20.50;99.90
24470;DHT22;12635;50.852;5.676;2023-06-22T13:05:04;20.50;99.90
24470;DHT22;12635;50.852;5.676;2023-06-22T13:07:32;20.50;99.90
24470;DHT22;12635;50.852;5.676;2023-06-22T13:09:58;20.50;99.90
24470;DHT22;12635;50.852;5.676;2023-06-22T13:12:25;20.50;99.90
24470;DHT22;12635;50.852;5.676;2023-06-22T13:14:53;20.40;99.90
24470;DHT22;12635;50.852;5.676;2023-06-22T13:17:20;20.50;99.90
24470;DHT22;12635;50.852;5.676;2023-06-22T13:19:47;20.50;99.90
24470;DHT22;12635;50.852;5.676;2023-06-22T13:22:27;20.50;99.90
24470;DHT22;12635;50.852;5.676;2023-06-22T13:24:55;20.50;99.90
24470;DHT22;12635;50.852;5.676;2023-06-22T13:27:22;20.30;99.90
24470;DHT22;12635;50.852;5.676;2023-06-22T13:29:49;20.20;99.90
24470;DHT22;12635;50.852;5.676;2023-06-22T13:32:17;20.10;99.90
24470;DHT22;12635;50.852;5.676;2023-06-22T13:34:44;20.10;99.90
24470;DHT22;12635;50.852;5.676;2023-06-22T13:37:11;20.00;99.90
24470;DHT22;12635;50.852;5.676;2023-06-22T13:39:38;20.00;99.90
24470;DHT22;12635;50.852;5.676;2023-06-22T13:42:05;20.00;99.90
24470;DHT22;12635;50.852;5.676;2023-06-22T13:44:32;19.90;99.90
24470;DHT22;12635;50.852;5.676;2023-06-22T13:46:59;19.90;99.90
24470;DHT22;12635;50.852;5.676;2023-06-22T13:49:27;19.80;99.90
24470;DHT22;12635;50.852;5.676;2023-06-22T13:51:54;19.80;99.90
24470;DHT22;12635;50.852;5.676;2023-06-22T13:54:21;19.70;99.90
24470;DHT22;12635;50.852;5.676;2023-06-22T13:56:48;19.70;99.90
24470;DHT22;12635;50.852;5.676;2023-06-22T13:59:15;19.50;99.90
24470;DHT22;12635;50.852;5.676;2023-06-22T14:01:42;19.30;99.90
24470;DHT22;12635;50.852;5.676;2023-06-22T14:04:09;19.10;99.90
24470;DHT22;12635;50.852;5.676;2023-06-22T14:06:38;19.00;99.90
24470;DHT22;12635;50.852;5.676;2023-06-22T14:09:05;18.90;99.90
24470;DHT22;12635;50.852;5.676;2023-06-22T14:11:32;18.90;99.90
24470;DHT22;12635;50.852;5.676;2023-06-22T14:13:59;18.90;99.90
24470;DHT22;12635;50.852;5.676;2023-06-22T14:16:26;18.80;99.90
24470;DHT22;12635;50.852;5.676;2023-06-22T14:18:53;18.80;99.90
24470;DHT22;12635;50.852;5.676;2023-06-22T14:21:20;18.80;99.90
24470;DHT22;12635;50.852;5.676;2023-06-22T14:23:48;18.80;99.90
24470;DHT22;12635;50.852;5.676;2023-06-22T14:26:15;18.70;99.90
24470;DHT22;12635;50.852;5.676;2023-06-22T14:28:44;18.70;99.90
24470;DHT22;12635;50.852;5.676;2023-06-22T14:31:14;18.70;99.90
24470;DHT22;12635;50.852;5.676;2023-06-22T14:33:41;18.60;99.90
24470;DHT22;12635;50.852;5.676;2023-06-22T14:36:07;18.60;99.90
24470;DHT22;12635;50.852;5.676;2023-06-22T14:38:34;18.50;99.90
24470;DHT22;12635;50.852;5.676;2023-06-22T14:41:03;18.50;99.90
24470;DHT22;12635;50.852;5.676;2023-06-22T14:43:30;18.50;99.90
24470;DHT22;12635;50.852;5.676;2023-06-22T14:45:57;18.40;99.90
24470;DHT22;12635;50.852;5.676;2023-06-22T14:48:24;18.40;99.90
24470;DHT22;12635;50.852;5.676;2023-06-22T14:50:51;18.30;99.90
24470;DHT22;12635;50.852;5.676;2023-06-22T14:53:19;18.30;99.90
24470;DHT22;12635;50.852;5.676;2023-06-22T14:55:46;18.30;99.90
24470;DHT22;12635;50.852;5.676;2023-06-22T14:58:14;18.30;99.90
24470;DHT22;12635;50.852;5.676;2023-06-22T15:00:41;18.30;99.90
24470;DHT22;12635;50.852;5.676;2023-06-22T15:03:08;18.30;99.90
24470;DHT22;12635;50.852;5.676;2023-06-22T15:05:42;18.20;99.90
24470;DHT22;12635;50.852;5.676;2023-06-22T15:08:09;18.20;99.90
24470;DHT22;12635;50.852;5.676;2023-06-22T15:10:36;18.20;99.90
24470;DHT22;12635;50.852;5.676;2023-06-22T15:13:03;18.10;99.90
24470;DHT22;12635;50.852;5.676;2023-06-22T15:15:32;18.10;99.90
24470;DHT22;12635;50.852;5.676;2023-06-22T15:17:59;18.10;99.90
24470;DHT22;12635;50.852;5.676;2023-06-22T15:20:26;18.10;99.90
24470;DHT22;12635;50.852;5.676;2023-06-22T15:22:53;18.10;99.90
24470;DHT22;12635;50.852;5.676;2023-06-22T15:25:20;18.10;99.90
24470;DHT22;12635;50.852;5.676;2023-06-22T15:27:47;18.10;99.90
24470;DHT22;12635;50.852;5.676;2023-06-22T15:30:14;18.10;99.90
24470;DHT22;12635;50.852;5.676;2023-06-22T15:32:43;18.10;99.90